Time;durP1;ratioP1;P1;durP2;ratioP2;P2;SDS_P1;SDS_P2;PMS_P1;PMS_P2;Temp;Humidity;BMP_temperature;BMP_pressure;BME280_temperature;BME280_humidity;BME280_pressure;Samples;Min_cycle;Max_cycle;Signal;HPM_P1;HPM_P2
2022/05/04 00:00:59;;;;;;;;;;;;;;;13.88;59.96;99740.94;4436869;32;20317;-90
2022/05/04 00:03:24;;;;;;;;;;;;;;;13.81;59.95;99737.75;4437044;32;20008;-90
2022/05/04 00:05:52;;;;;;;;;;;;;;;13.77;59.94;99730.12;4436917;32;20258;-91
2022/05/04 00:08:25;;;;;;;;;;;;;;;13.86;59.95;99727.09;4437039;32;19985;-91
2022/05/04 00:10:56;;;;;;;;;;;;;;;13.89;59.95;99728.72;4437191;32;19965;-90
2022/05/04 00:13:23;;;;;;;;;;;;;;;13.99;59.95;99727.37;4437085;32;19997;-89
2022/05/04 00:15:51;;;;;;;;;;;;;;;13.85;59.95;99727.16;4436806;32;19990;-92
2022/05/04 00:18:16;;;;;;;;;;;;;;;13.60;59.93;99743.97;4437029;32;20334;-91
2022/05/04 00:20:44;;;;;;;;;;;;;;;13.55;59.93;99738.09;4436963;32;19981;-90
2022/05/04 00:23:12;;;;;;;;;;;;;;;13.57;59.94;99738.88;4437046;32;20024;-90
2022/05/04 00:25:40;;;;;;;;;;;;;;;13.58;59.94;99740.56;4423846;32;19985;-91
2022/05/04 00:28:11;;;;;;;;;;;;;;;13.50;59.93;99740.06;4436914;32;19981;-89
2022/05/04 00:30:36;;;;;;;;;;;;;;;13.51;59.93;99736.53;4426868;32;19981;-91
2022/05/04 00:33:04;;;;;;;;;;;;;;;13.67;59.94;99742.75;4413753;32;19990;-88
2022/05/04 00:35:33;;;;;;;;;;;;;;;13.52;59.94;99746.06;4426506;32;20027;-90
2022/05/04 00:38:01;;;;;;;;;;;;;;;13.44;59.93;99737.69;4426611;32;20326;-90
2022/05/04 00:40:32;;;;;;;;;;;;;;;13.35;59.92;99740.72;4426462;32;20363;-90
2022/05/04 00:43:00;;;;;;;;;;;;;;;13.26;59.93;99744.59;4413831;32;19990;-91
2022/05/04 00:45:31;;;;;;;;;;;;;;;13.11;59.90;99746.06;4426766;32;20463;-92
2022/05/04 00:47:56;;;;;;;;;;;;;;;12.98;59.90;99749.22;4413920;32;19996;-92
2022/05/04 00:50:22;;;;;;;;;;;;;;;12.87;59.89;99752.31;4426544;32;21448;-92
2022/05/04 00:52:50;;;;;;;;;;;;;;;13.06;59.90;99757.63;4413413;32;32446;-92
2022/05/04 00:55:18;;;;;;;;;;;;;;;12.96;59.91;99753.69;4427159;32;20043;-92
2022/05/04 01:00:34;;;;;;;;;;;;;;;13.00;59.90;99752.62;4429010;32;20000;-89
2022/05/04 01:02:59;;;;;;;;;;;;;;;12.82;59.90;99751.66;4413654;32;20339;-92
2022/05/04 01:05:24;;;;;;;;;;;;;;;12.91;59.90;99746.03;4414177;32;28493;-94
2022/05/04 01:07:56;;;;;;;;;;;;;;;12.84;59.89;99752.44;4416308;32;20018;-96
2022/05/04 01:10:24;;;;;;;;;;;;;;;12.73;59.89;99757.22;4416825;32;20505;-96
2022/05/04 01:13:14;;;;;;;;;;;;;;;12.84;59.89;99749.81;4422916;32;19958;-96
2022/05/04 01:16:09;;;;;;;;;;;;;;;12.79;59.89;99743.94;4445053;32;19954;-96
2022/05/04 01:18:35;;;;;;;;;;;;;;;12.78;59.88;99750.09;4441792;32;19964;-96
2022/05/04 01:21:06;;;;;;;;;;;;;;;12.65;59.87;99751.47;4440701;32;19964;-96
2022/05/04 01:23:32;;;;;;;;;;;;;;;12.58;59.88;99751.72;4441140;32;19954;-96
2022/05/04 01:25:58;;;;;;;;;;;;;;;12.67;59.89;99741.81;4440199;32;19993;-96
2022/05/04 01:28:46;;;;;;;;;;;;;;;12.70;59.88;99752.13;4642657;27;20042;-95
2022/05/04 01:31:14;;;;;;;;;;;;;;;12.83;59.89;99748.13;4412813;32;19978;-91
2022/05/04 01:33:42;;;;;;;;;;;;;;;12.52;59.88;99743.28;4397141;32;19994;-91
2022/05/04 01:36:07;;;;;;;;;;;;;;;12.49;59.88;99746.88;4409650;32;20002;-92
2022/05/04 01:38:33;;;;;;;;;;;;;;;12.50;59.88;99755.53;4396599;32;20034;-92
2022/05/04 01:40:58;;;;;;;;;;;;;;;12.35;59.87;99753.56;4409002;32;19978;-92
2022/05/04 01:43:23;;;;;;;;;;;;;;;12.22;59.86;99753.16;4396405;32;20005;-92
2022/05/04 01:45:49;;;;;;;;;;;;;;;12.16;59.86;99756.03;4396428;32;20017;-92
2022/05/04 01:48:14;;;;;;;;;;;;;;;12.19;59.85;99755.91;4396020;32;19989;-90
2022/05/04 01:50:39;;;;;;;;;;;;;;;12.23;59.86;99752.25;4395699;32;19990;-90
2022/05/04 01:53:05;;;;;;;;;;;;;;;12.05;59.84;99755.56;4407759;32;25395;-91
2022/05/04 01:55:33;;;;;;;;;;;;;;;11.85;59.84;99753.72;4395608;32;19983;-90
2022/05/04 01:58:05;;;;;;;;;;;;;;;11.89;59.83;99747.47;4395785;32;19978;-91
2022/05/04 02:00:34;;;;;;;;;;;;;;;11.81;59.83;99752.97;4395977;32;20342;-91
2022/05/04 02:03:08;;;;;;;;;;;;;;;11.91;59.85;99750.88;4395713;32;20029;-89
2022/05/04 02:05:33;;;;;;;;;;;;;;;12.01;59.85;99751.38;4408005;32;19994;-91
2022/05/04 02:08:22;;;;;;;;;;;;;;;11.88;59.84;99745.78;4408149;32;20241;-90
2022/05/04 02:10:53;;;;;;;;;;;;;;;11.93;59.84;99744.69;4393829;32;19961;-91
2022/05/04 02:13:18;;;;;;;;;;;;;;;11.91;59.85;99743.06;4408382;32;19990;-91
2022/05/04 02:15:44;;;;;;;;;;;;;;;11.84;59.84;99745.06;4408317;32;20024;-92
2022/05/04 02:18:12;;;;;;;;;;;;;;;11.83;59.84;99748.56;4407944;32;19996;-91
2022/05/04 02:20:37;;;;;;;;;;;;;;;11.85;59.84;99740.69;4408160;32;19982;-89
2022/05/04 02:23:03;;;;;;;;;;;;;;;11.75;59.82;99752.31;4407589;32;19985;-92
2022/05/04 02:25:28;;;;;;;;;;;;;;;11.78;59.83;99742.66;4408188;32;20041;-91
2022/05/04 02:27:53;;;;;;;;;;;;;;;11.55;59.82;99743.44;4408345;32;19986;-91
2022/05/04 02:30:18;;;;;;;;;;;;;;;11.57;59.82;99746.00;4410197;32;23559;-91
2022/05/04 02:32:44;;;;;;;;;;;;;;;11.78;59.83;99747.88;4410556;32;19994;-91
2022/05/04 02:38:00;;;;;;;;;;;;;;;11.86;59.84;99738.03;4423387;32;20045;-89
2022/05/04 02:40:31;;;;;;;;;;;;;;;11.76;59.83;99752.25;4424459;32;19966;-90
2022/05/04 02:43:03;;;;;;;;;;;;;;;11.98;59.84;99757.56;4410252;32;19990;-91
2022/05/04 02:45:29;;;;;;;;;;;;;;;11.49;59.81;99754.09;4410115;32;20008;-91
2022/05/04 02:47:54;;;;;;;;;;;;;;;11.64;59.83;99757.94;4410223;32;19997;-90
2022/05/04 02:50:19;;;;;;;;;;;;;;;11.71;59.83;99763.75;4410441;32;19986;-89
2022/05/04 02:52:48;;;;;;;;;;;;;;;11.49;59.81;99766.28;4409887;32;20043;-90
2022/05/04 02:55:13;;;;;;;;;;;;;;;11.45;59.81;99765.56;4409729;32;20025;-91
2022/05/04 02:57:38;;;;;;;;;;;;;;;11.45;59.81;99762.09;4409745;32;26670;-89
2022/05/04 03:00:04;;;;;;;;;;;;;;;11.38;59.82;99767.53;4410119;32;20006;-91
2022/05/04 03:02:35;;;;;;;;;;;;;;;11.28;59.80;99762.69;4412045;32;20109;-89
2022/05/04 03:05:03;;;;;;;;;;;;;;;11.35;59.81;99754.59;4422884;32;20004;-91
2022/05/04 03:07:28;;;;;;;;;;;;;;;11.50;59.82;99749.75;4422968;32;20023;-91
2022/05/04 03:09:54;;;;;;;;;;;;;;;11.25;59.80;99760.19;4409850;32;19989;-91
2022/05/04 03:12:22;;;;;;;;;;;;;;;11.19;59.80;99756.03;4410133;32;20006;-90
2022/05/04 03:15:06;;;;;;;;;;;;;;;11.12;59.80;99757.16;4409872;32;20002;-92
2022/05/04 03:17:31;;;;;;;;;;;;;;;11.35;59.81;99753.72;4410107;32;19986;-91
2022/05/04 03:19:58;;;;;;;;;;;;;;;11.37;59.82;99760.62;4422640;32;20000;-90
2022/05/04 03:22:23;;;;;;;;;;;;;;;11.18;59.80;99759.56;4410953;32;19993;-91
2022/05/04 03:24:49;;;;;;;;;;;;;;;11.33;59.81;99760.75;4410797;32;20000;-92
2022/05/04 03:27:14;;;;;;;;;;;;;;;11.22;59.81;99761.12;4413332;32;19982;-92
2022/05/04 03:29:39;;;;;;;;;;;;;;;11.17;59.80;99765.66;4421749;32;19979;-90
2022/05/04 03:32:05;;;;;;;;;;;;;;;11.17;59.80;99772.63;4407967;32;20355;-91
2022/05/04 03:34:36;;;;;;;;;;;;;;;11.12;59.80;99772.78;4407681;32;20000;-91
2022/05/04 03:37:04;;;;;;;;;;;;;;;11.26;59.80;99774.91;4409088;32;19974;-91
2022/05/04 03:39:34;;;;;;;;;;;;;;;11.21;59.80;99775.06;4409258;32;19978;-91
2022/05/04 03:42:00;;;;;;;;;;;;;;;11.11;59.80;99773.66;4409311;32;19994;-91
2022/05/04 03:44:25;;;;;;;;;;;;;;;11.15;59.79;99774.44;4422083;32;20005;-91
2022/05/04 03:46:51;;;;;;;;;;;;;;;11.25;59.80;99778.41;4408621;32;19978;-91
2022/05/04 03:49:17;;;;;;;;;;;;;;;11.13;59.80;99778.84;4409185;32;19992;-91
2022/05/04 03:51:43;;;;;;;;;;;;;;;11.26;59.80;99774.91;4409100;32;20351;-92
2022/05/04 03:54:08;;;;;;;;;;;;;;;11.22;59.81;99781.97;4409302;32;19990;-92
2022/05/04 03:56:33;;;;;;;;;;;;;;;11.29;59.80;99780.84;4410328;32;20032;-94
2022/05/04 03:58:58;;;;;;;;;;;;;;;11.33;59.81;99782.44;4410807;32;19988;-94
2022/05/04 04:01:24;;;;;;;;;;;;;;;11.43;59.81;99785.59;4408881;32;20122;-89
2022/05/04 04:03:49;;;;;;;;;;;;;;;11.47;59.82;99781.97;4408821;32;20005;-89
2022/05/04 04:06:15;;;;;;;;;;;;;;;11.41;59.82;99779.59;4422168;32;19978;-90
2022/05/04 04:08:43;;;;;;;;;;;;;;;11.45;59.81;99783.81;4410174;32;20274;-91
2022/05/04 04:11:09;;;;;;;;;;;;;;;11.58;59.82;99785.06;4409454;32;19994;-90
2022/05/04 04:13:36;;;;;;;;;;;;;;;11.62;59.82;99785.81;4409177;32;20013;-94
2022/05/04 04:16:08;;;;;;;;;;;;;;;11.50;59.82;99786.25;4409837;32;20013;-92
2022/05/04 04:18:33;;;;;;;;;;;;;;;11.65;59.82;99790.91;4410397;32;19974;-93
2022/05/04 04:23:42;;;;;;;;;;;;;;;11.91;59.84;99795.22;4421234;32;19996;-94
2022/05/04 04:26:08;;;;;;;;;;;;;;;11.81;59.83;99804.28;4422307;32;19978;-88
2022/05/04 04:28:43;;;;;;;;;;;;;;;11.85;59.84;99803.28;4409981;32;19974;-94
2022/05/04 04:31:09;;;;;;;;;;;;;;;11.85;59.84;99798.91;4412609;32;19988;-94
2022/05/04 04:33:34;;;;;;;;;;;;;;;11.96;59.84;99801.97;4412069;32;20270;-95
2022/05/04 04:36:03;;;;;;;;;;;;;;;12.24;59.86;99801.78;4412260;32;19982;-94
2022/05/04 04:38:34;;;;;;;;;;;;;;;11.94;59.84;99803.78;4413519;32;20032;-95
2022/05/04 04:41:02;;;;;;;;;;;;;;;12.04;59.84;99804.28;4412619;32;20006;-95
2022/05/04 04:43:34;;;;;;;;;;;;;;;12.09;59.85;99809.34;4413740;32;20658;-96
2022/05/04 04:46:00;;;;;;;;;;;;;;;12.17;59.85;99808.16;4414768;32;19969;-94
2022/05/04 04:48:28;;;;;;;;;;;;;;;12.38;59.87;99806.50;4414247;32;19984;-96
2022/05/04 04:51:06;;;;;;;;;;;;;;;12.52;59.88;99811.16;4414861;32;19963;-96
2022/05/04 04:53:31;;;;;;;;;;;;;;;12.74;59.89;99806.78;4416439;32;20343;-96
2022/05/04 04:55:57;;;;;;;;;;;;;;;13.17;59.91;99807.66;4412326;32;19988;-95
2022/05/04 04:58:32;;;;;;;;;;;;;;;13.26;59.91;99803.87;4413283;32;19990;-95
2022/05/04 05:00:57;;;;;;;;;;;;;;;13.39;59.92;99805.88;4412917;32;20046;-96
2022/05/04 05:03:23;;;;;;;;;;;;;;;13.67;59.94;99802.91;4412016;32;20013;-96
2022/05/04 05:05:51;;;;;;;;;;;;;;;13.72;59.93;99802.72;4412134;32;19978;-96
2022/05/04 05:08:25;;;;;;;;;;;;;;;13.99;59.95;99798.91;4416503;32;19955;-95
2022/05/04 05:10:53;;;;;;;;;;;;;;;14.30;59.97;99808.81;4417173;32;19998;-96
2022/05/04 05:13:30;;;;;;;;;;;;;;;14.56;59.99;99812.84;4416054;32;20355;-96
2022/05/04 05:16:23;;;;;;;;;;;;;;;14.85;60.00;99806.22;4411281;32;19986;-96
2022/05/04 05:21:42;;;;;;;;;;;;;;;15.25;60.03;99799.00;4398491;32;19985;-96
2022/05/04 05:24:07;;;;;;;;;;;;;;;15.41;60.03;99802.56;4411109;32;20156;-94
2022/05/04 05:26:38;;;;;;;;;;;;;;;15.35;60.02;99803.69;4411733;32;20649;-95
2022/05/04 05:29:04;;;;;;;;;;;;;;;15.64;60.04;99804.88;4411957;32;19954;-95
2022/05/04 05:31:29;;;;;;;;;;;;;;;15.98;60.06;99797.84;4413570;32;20012;-95
2022/05/04 05:33:54;;;;;;;;;;;;;;;16.08;60.06;99799.03;4413752;32;19986;-96
2022/05/04 05:36:20;;;;;;;;;;;;;;;16.36;60.08;99801.03;4411562;32;20006;-96
2022/05/04 05:38:45;;;;;;;;;;;;;;;16.44;60.08;99797.97;4415698;32;19982;-96
2022/05/04 05:41:13;;;;;;;;;;;;;;;16.56;60.09;99805.16;4429148;32;20612;-96
2022/05/04 05:43:45;;;;;;;;;;;;;;;16.87;60.11;99805.19;4427490;32;19970;-95
2022/05/04 05:46:14;;;;;;;;;;;;;;;17.15;60.13;99799.19;4412563;32;20045;-96
2022/05/04 05:48:54;;;;;;;;;;;;;;;17.22;60.12;99790.91;4412097;32;19965;-96
2022/05/04 05:51:20;;;;;;;;;;;;;;;17.46;60.15;99790.31;4413376;32;19985;-96
2022/05/04 05:53:45;;;;;;;;;;;;;;;17.56;60.15;99789.78;4425718;32;20274;-96
2022/05/04 05:56:10;;;;;;;;;;;;;;;17.64;60.14;99793.63;4412451;32;20005;-96
2022/05/04 05:58:37;;;;;;;;;;;;;;;17.71;60.15;99796.78;4411073;32;19981;-95
2022/05/04 06:01:12;;;;;;;;;;;;;;;18.07;60.17;99793.69;4412375;32;20005;-95
2022/05/04 06:03:50;;;;;;;;;;;;;;;18.05;60.17;99796.41;4413880;32;19959;-96
2022/05/04 06:06:15;;;;;;;;;;;;;;;18.31;60.19;99801.84;4411748;32;19978;-95
2022/05/04 06:08:41;;;;;;;;;;;;;;;18.45;60.19;99806.22;4411639;32;19974;-95
2022/05/04 06:11:06;;;;;;;;;;;;;;;18.57;60.20;99813.38;4412061;32;20004;-96
2022/05/04 06:13:35;;;;;;;;;;;;;;;18.53;60.19;99804.81;4412178;32;20024;-96
2022/05/04 06:16:03;;;;;;;;;;;;;;;18.68;60.20;99806.47;4411958;32;20060;-96
2022/05/04 06:18:29;;;;;;;;;;;;;;;18.93;60.22;99810.19;4412097;32;19968;-95
2022/05/04 06:20:54;;;;;;;;;;;;;;;18.89;60.21;99809.53;4424442;32;20006;-96
2022/05/04 06:23:19;;;;;;;;;;;;;;;19.20;60.23;99803.09;4424849;32;20004;-96
2022/05/04 06:25:47;;;;;;;;;;;;;;;19.29;60.23;99812.16;4412226;32;19978;-96
2022/05/04 06:28:19;;;;;;;;;;;;;;;19.51;60.24;99806.28;4411718;32;19966;-95
2022/05/04 06:36:12;;;;;;;;;;;;;;;20.03;60.28;99810.66;4426369;32;19988;-96
2022/05/04 06:38:41;;;;;;;;;;;;;;;20.29;60.29;99809.66;4413753;32;19977;-93
2022/05/04 06:41:09;;;;;;;;;;;;;;;20.44;60.29;99808.59;4414963;32;20001;-95
2022/05/04 06:43:43;;;;;;;;;;;;;;;20.68;60.31;99811.28;4416498;32;19958;-95
2022/05/04 06:46:08;;;;;;;;;;;;;;;20.94;60.33;99812.00;4417113;32;19993;-94
2022/05/04 06:48:37;;;;;;;;;;;;;;;20.98;60.32;99802.87;4414192;32;19974;-94
2022/05/04 06:51:02;;;;;;;;;;;;;;;21.13;60.33;99799.09;4412941;32;20418;-92
2022/05/04 06:53:49;;;;;;;;;;;;;;;21.29;60.34;99800.59;4412660;32;19989;-94
2022/05/04 06:56:17;;;;;;;;;;;;;;;21.43;60.35;99805.72;4413283;32;19968;-95
2022/05/04 06:58:44;;;;;;;;;;;;;;;21.60;60.35;99805.28;4413988;32;20042;-93
2022/05/04 07:01:10;;;;;;;;;;;;;;;21.71;60.37;99799.97;4412407;32;20013;-95
2022/05/04 07:03:45;;;;;;;;;;;;;;;21.81;60.37;99797.50;4412901;32;20397;-93
2022/05/04 07:06:12;;;;;;;;;;;;;;;21.97;60.38;99786.50;4412379;32;20298;-94
2022/05/04 07:08:42;;;;;;;;;;;;;;;22.22;60.39;99796.91;4412089;32;20029;-94
2022/05/04 07:11:07;;;;;;;;;;;;;;;22.32;60.39;99787.25;4413809;32;19994;-95
2022/05/04 07:13:32;;;;;;;;;;;;;;;22.47;60.40;99795.78;4414420;32;20029;-94
2022/05/04 07:16:01;;;;;;;;;;;;;;;22.60;60.41;99793.81;4413763;32;20022;-94
2022/05/04 07:18:27;;;;;;;;;;;;;;;22.73;60.43;99791.03;4413486;32;19954;-93
2022/05/04 07:20:53;;;;;;;;;;;;;;;22.81;60.42;99791.28;4415172;32;20041;-93
2022/05/04 07:23:18;;;;;;;;;;;;;;;22.83;60.42;99792.00;4412048;32;23505;-93
2022/05/04 07:25:43;;;;;;;;;;;;;;;22.91;60.43;99789.53;4425300;32;20057;-93
2022/05/04 07:28:08;;;;;;;;;;;;;;;23.14;60.44;99794.75;4412382;32;20012;-92
2022/05/04 07:30:34;;;;;;;;;;;;;;;23.46;60.45;99795.56;4412051;32;20005;-92
2022/05/04 07:32:59;;;;;;;;;;;;;;;23.55;60.46;99793.94;4412224;32;20010;-95
2022/05/04 07:35:24;;;;;;;;;;;;;;;23.72;60.46;99796.03;4413054;32;19985;-92
2022/05/04 07:37:49;;;;;;;;;;;;;;;23.87;60.48;99793.84;4412488;32;20027;-92
2022/05/04 07:42:59;;;;;;;;;;;;;;;24.23;60.50;99797.78;4425176;32;20080;-93
2022/05/04 07:45:24;;;;;;;;;;;;;;;24.31;60.50;99790.00;4412089;32;19994;-93
2022/05/04 07:47:49;;;;;;;;;;;;;;;24.28;60.50;99798.25;4412250;32;20020;-93
2022/05/04 07:50:14;;;;;;;;;;;;;;;24.26;60.49;99786.88;4412082;32;20370;-93
2022/05/04 07:52:41;;;;;;;;;;;;;;;24.38;60.50;99800.97;4425113;32;19990;-94
2022/05/04 07:55:07;;;;;;;;;;;;;;;24.36;60.50;99794.91;4412088;32;20041;-92
2022/05/04 07:57:32;;;;;;;;;;;;;;;24.45;60.52;99802.09;4412032;32;19982;-93
2022/05/04 08:05:29;;;;;;;;;;;;;;;24.73;60.52;99814.59;4425044;32;20061;-92
2022/05/04 08:07:54;;;;;;;;;;;;;;;24.91;60.54;99809.44;4412019;32;19985;-92
2022/05/04 08:10:20;;;;;;;;;;;;;;;24.97;60.53;99805.38;4411830;32;19989;-91
2022/05/04 08:12:45;;;;;;;;;;;;;;;24.95;60.54;99802.03;4412174;32;20031;-92
2022/05/04 08:15:10;;;;;;;;;;;;;;;25.06;60.54;99799.25;4411828;32;19982;-92
2022/05/04 08:17:36;;;;;;;;;;;;;;;24.92;60.54;99794.31;4412174;32;19988;-94
2022/05/04 08:20:01;;;;;;;;;;;;;;;25.01;60.54;99802.31;4411779;32;20029;-91
2022/05/04 08:22:26;;;;;;;;;;;;;;;25.11;60.55;99804.16;4410644;32;23266;-92
2022/05/04 08:24:52;;;;;;;;;;;;;;;25.28;60.55;99798.94;4425113;32;20024;-91
2022/05/04 08:27:17;;;;;;;;;;;;;;;25.37;60.55;99791.94;4412115;32;19982;-91
2022/05/04 08:29:44;;;;;;;;;;;;;;;25.66;60.58;99794.56;4423309;32;19966;-90
2022/05/04 08:32:10;;;;;;;;;;;;;;;25.91;60.59;99795.78;4414323;32;19998;-91
2022/05/04 08:34:35;;;;;;;;;;;;;;;25.94;60.60;99796.31;4411657;32;20001;-91
2022/05/04 08:37:00;;;;;;;;;;;;;;;25.95;60.59;99797.16;4423992;32;23964;-92
2022/05/04 08:39:25;;;;;;;;;;;;;;;25.95;60.59;99798.00;4411552;32;19998;-92
2022/05/04 08:41:51;;;;;;;;;;;;;;;26.04;60.60;99798.97;4411458;32;20030;-93
2022/05/04 08:44:16;;;;;;;;;;;;;;;26.22;60.61;99799.00;4411624;32;19982;-92
2022/05/04 08:46:42;;;;;;;;;;;;;;;26.24;60.62;99805.03;4424537;32;20289;-92
2022/05/04 08:49:07;;;;;;;;;;;;;;;26.45;60.62;99799.47;4424357;32;19997;-92
2022/05/04 08:51:33;;;;;;;;;;;;;;;26.85;60.64;99799.06;4411794;32;20015;-92
2022/05/04 08:53:58;;;;;;;;;;;;;;;27.11;60.64;99797.34;4411543;32;20023;-92
2022/05/04 08:56:23;;;;;;;;;;;;;;;27.27;60.67;99804.69;4413327;32;19977;-92
2022/05/04 08:58:49;;;;;;;;;;;;;;;27.12;60.65;99803.53;4411557;32;20013;-91
2022/05/04 09:01:14;;;;;;;;;;;;;;;27.00;60.65;99802.94;4411578;32;20073;-92
2022/05/04 09:03:39;;;;;;;;;;;;;;;27.16;60.65;99800.41;4411615;32;20350;-91
2022/05/04 09:06:04;;;;;;;;;;;;;;;27.27;60.67;99796.66;4411622;32;19986;-91
2022/05/04 09:08:30;;;;;;;;;;;;;;;27.36;60.67;99805.56;4411827;32;20362;-92
2022/05/04 09:10:55;;;;;;;;;;;;;;;27.71;60.68;99800.19;4424484;32;20274;-92
2022/05/04 09:13:20;;;;;;;;;;;;;;;27.72;60.69;99804.53;4411480;32;19977;-92
2022/05/04 09:15:45;;;;;;;;;;;;;;;27.96;60.69;99798.50;4411888;32;19995;-93
2022/05/04 09:18:13;;;;;;;;;;;;;;;27.91;60.70;99797.25;4411578;32;20012;-91
2022/05/04 09:20:48;;;;;;;;;;;;;;;28.03;60.70;99804.03;4414222;32;19966;-92
2022/05/04 09:23:22;;;;;;;;;;;;;;;28.24;60.71;99796.44;4415910;32;19981;-91
2022/05/04 09:25:48;;;;;;;;;;;;;;;28.32;60.71;99796.50;4413354;32;19986;-93
2022/05/04 09:28:14;;;;;;;;;;;;;;;28.29;60.72;99787.94;4412028;32;19989;-92
2022/05/04 09:31:02;;;;;;;;;;;;;;;28.37;60.73;99796.00;4411675;32;20011;-92
2022/05/04 09:33:28;;;;;;;;;;;;;;;28.34;60.72;99801.69;4408998;32;19982;-91
2022/05/04 09:35:54;;;;;;;;;;;;;;;28.20;60.71;99800.44;4413344;32;19967;-93
2022/05/04 09:46:39;;;;;;;;;;;;;;;29.21;60.77;99800.38;4424404;32;20012;-94
2022/05/04 09:49:14;;;;;;;;;;;;;;;29.37;60.77;99789.66;4411532;32;20041;-93
2022/05/04 09:51:40;;;;;;;;;;;;;;;29.26;60.77;99795.34;4411415;32;19998;-93
2022/05/04 09:54:13;;;;;;;;;;;;;;;28.97;60.75;99785.13;4411331;32;20025;-92
2022/05/04 09:56:39;;;;;;;;;;;;;;;28.89;60.74;99785.97;4428303;32;20011;-93
2022/05/04 09:59:05;;;;;;;;;;;;;;;28.97;60.75;99774.41;4411337;32;20319;-94
2022/05/04 10:01:31;;;;;;;;;;;;;;;28.80;60.74;99781.56;4411202;32;19997;-92
2022/05/04 10:04:00;;;;;;;;;;;;;;;28.71;60.74;99783.38;4411066;32;20370;-92
2022/05/04 10:06:25;;;;;;;;;;;;;;;28.82;60.74;99781.38;4411032;32;20034;-93
2022/05/04 10:08:50;;;;;;;;;;;;;;;28.59;60.73;99770.47;4424066;32;19981;-92
2022/05/04 10:11:16;;;;;;;;;;;;;;;28.02;60.71;99768.41;4423665;32;19982;-93
2022/05/04 10:13:42;;;;;;;;;;;;;;;27.74;60.69;99781.16;4411138;32;20315;-93
2022/05/04 10:16:10;;;;;;;;;;;;;;;27.55;60.68;99772.47;4411681;32;20357;-93
2022/05/04 10:18:35;;;;;;;;;;;;;;;27.62;60.68;99768.16;4424177;32;19966;-92
2022/05/04 10:21:11;;;;;;;;;;;;;;;27.55;60.68;99765.28;4411307;32;20318;-92
2022/05/04 10:23:41;;;;;;;;;;;;;;;27.19;60.67;99769.84;4411006;32;19992;-93
2022/05/04 10:26:06;;;;;;;;;;;;;;;27.20;60.67;99761.66;4411132;32;19973;-93
2022/05/04 10:28:41;;;;;;;;;;;;;;;27.16;60.66;99760.31;4410618;32;20322;-92
2022/05/04 10:31:12;;;;;;;;;;;;;;;27.10;60.65;99760.94;4411025;32;20062;-92
2022/05/04 10:33:37;;;;;;;;;;;;;;;27.14;60.66;99762.31;4411119;32;20012;-92
2022/05/04 10:36:18;;;;;;;;;;;;;;;26.95;60.66;99762.44;4412359;32;20367;-93
2022/05/04 10:38:44;;;;;;;;;;;;;;;26.91;60.65;99767.25;4410647;32;20325;-94
2022/05/04 10:41:10;;;;;;;;;;;;;;;26.88;60.65;99769.38;4411153;32;20005;-93
2022/05/04 10:43:43;;;;;;;;;;;;;;;26.94;60.66;99784.78;4410576;32;19986;-93
2022/05/04 10:46:28;;;;;;;;;;;;;;;26.72;60.64;99786.09;4424306;32;19951;-94
2022/05/04 10:48:54;;;;;;;;;;;;;;;26.45;60.63;99786.97;4411474;32;20017;-93
2022/05/04 10:51:21;;;;;;;;;;;;;;;26.10;60.61;99784.19;4410993;32;20016;-93
2022/05/04 10:54:09;;;;;;;;;;;;;;;25.63;60.59;99786.84;4411304;32;20084;-94
2022/05/04 10:56:36;;;;;;;;;;;;;;;25.25;60.57;99795.72;4420609;32;19954;-94
2022/05/04 10:59:02;;;;;;;;;;;;;;;24.90;60.56;99788.28;4412048;32;20055;-95
2022/05/04 11:01:28;;;;;;;;;;;;;;;24.49;60.53;99793.69;4411677;32;20002;-96
2022/05/04 11:04:04;;;;;;;;;;;;;;;24.18;60.51;99792.88;4424602;32;19950;-96
2022/05/04 11:06:43;;;;;;;;;;;;;;;24.00;60.50;99790.97;4411872;32;19992;-96
2022/05/04 11:09:16;;;;;;;;;;;;;;;23.74;60.49;99793.25;4412003;32;20008;-96
2022/05/04 11:11:42;;;;;;;;;;;;;;;23.66;60.49;99787.72;4412052;32;20039;-96
2022/05/04 11:14:08;;;;;;;;;;;;;;;23.52;60.48;99786.22;4411935;32;19985;-95
2022/05/04 11:16:33;;;;;;;;;;;;;;;23.46;60.48;99784.09;4412025;32;20303;-96
2022/05/04 11:18:59;;;;;;;;;;;;;;;23.21;60.46;99777.34;4416097;32;19985;-93
2022/05/04 11:21:25;;;;;;;;;;;;;;;23.27;60.47;99776.84;4423017;32;20044;-94
2022/05/04 11:23:51;;;;;;;;;;;;;;;23.36;60.47;99783.16;4411650;32;19986;-93
2022/05/04 11:26:20;;;;;;;;;;;;;;;23.39;60.47;99777.59;4411042;32;20000;-94
2022/05/04 11:28:45;;;;;;;;;;;;;;;23.45;60.47;99780.59;4411022;32;20005;-94
2022/05/04 11:31:11;;;;;;;;;;;;;;;23.27;60.47;99779.50;4411142;32;20035;-94
2022/05/04 11:33:36;;;;;;;;;;;;;;;23.19;60.47;99776.66;4423446;32;19982;-93
2022/05/04 11:36:01;;;;;;;;;;;;;;;23.18;60.47;99780.25;4411018;32;20045;-94
2022/05/04 11:38:27;;;;;;;;;;;;;;;23.07;60.46;99782.97;4410900;32;20005;-93
2022/05/04 11:40:54;;;;;;;;;;;;;;;23.24;60.47;99777.09;4410850;32;19989;-93
2022/05/04 11:43:33;;;;;;;;;;;;;;;23.50;60.48;99775.72;4410484;32;19986;-93
2022/05/04 11:45:58;;;;;;;;;;;;;;;23.39;60.46;99772.28;4410822;32;20002;-93
2022/05/04 11:48:23;;;;;;;;;;;;;;;23.25;60.46;99770.81;4412147;32;31203;-94
2022/05/04 11:50:48;;;;;;;;;;;;;;;23.35;60.47;99769.03;4411265;32;20291;-93
2022/05/04 11:53:14;;;;;;;;;;;;;;;23.14;60.46;99770.84;4410337;32;20025;-93
2022/05/04 11:55:39;;;;;;;;;;;;;;;23.21;60.46;99769.38;4411168;32;19986;-93
2022/05/04 11:58:09;;;;;;;;;;;;;;;23.26;60.45;99777.81;4412500;32;20039;-93
2022/05/04 12:00:34;;;;;;;;;;;;;;;23.16;60.46;99774.22;4425628;32;19990;-93
2022/05/04 12:03:00;;;;;;;;;;;;;;;23.28;60.47;99775.84;4413402;32;20019;-92
2022/05/04 12:05:25;;;;;;;;;;;;;;;23.40;60.47;99781.94;4412694;32;19975;-93
2022/05/04 12:07:50;;;;;;;;;;;;;;;23.45;60.47;99782.41;4412477;32;20008;-94
2022/05/04 12:10:15;;;;;;;;;;;;;;;23.37;60.47;99777.72;4414034;32;19989;-93
2022/05/04 12:12:41;;;;;;;;;;;;;;;23.42;60.47;99791.50;4412503;32;19985;-92
2022/05/04 12:15:07;;;;;;;;;;;;;;;23.53;60.47;99791.41;4412456;32;19990;-93
2022/05/04 12:17:36;;;;;;;;;;;;;;;23.19;60.46;99782.81;4412298;32;19990;-93
2022/05/04 12:20:01;;;;;;;;;;;;;;;23.06;60.45;99792.75;4412645;32;20053;-93
2022/05/04 12:22:26;;;;;;;;;;;;;;;23.00;60.45;99797.72;4412339;32;20000;-92
2022/05/04 12:24:52;;;;;;;;;;;;;;;23.08;60.45;99797.91;4412309;32;19970;-93
2022/05/04 12:27:17;;;;;;;;;;;;;;;23.15;60.45;99799.09;4412551;32;19994;-94
2022/05/04 12:35:10;;;;;;;;;;;;;;;22.47;60.41;99792.28;4421438;32;20032;-94
2022/05/04 12:37:35;;;;;;;;;;;;;;;22.20;60.41;99777.63;4422633;32;20026;-92
2022/05/04 12:40:02;;;;;;;;;;;;;;;22.16;60.41;99770.88;4409654;32;20036;-93
2022/05/04 12:42:27;;;;;;;;;;;;;;;22.22;60.41;99766.88;4409907;32;19986;-94
2022/05/04 12:44:53;;;;;;;;;;;;;;;22.49;60.42;99770.00;4409843;32;19974;-94
2022/05/04 12:47:18;;;;;;;;;;;;;;;22.40;60.42;99762.75;4409453;32;19990;-93
2022/05/04 12:49:45;;;;;;;;;;;;;;;22.41;60.42;99755.66;4409651;32;20066;-93
2022/05/04 12:52:10;;;;;;;;;;;;;;;22.68;60.43;99751.59;4411830;32;19996;-94
2022/05/04 12:54:36;;;;;;;;;;;;;;;22.89;60.44;99748.16;4409354;32;19993;-93
2022/05/04 12:57:02;;;;;;;;;;;;;;;23.02;60.44;99734.72;4408917;32;23139;-93
2022/05/04 12:59:28;;;;;;;;;;;;;;;23.04;60.45;99736.28;4409476;32;20044;-92
2022/05/04 13:01:54;;;;;;;;;;;;;;;23.24;60.46;99739.91;4409648;32;20049;-93
2022/05/04 13:04:19;;;;;;;;;;;;;;;23.57;60.48;99739.72;4409230;32;20032;-94
2022/05/04 13:06:44;;;;;;;;;;;;;;;23.69;60.48;99736.97;4408879;32;20361;-94
2022/05/04 13:09:09;;;;;;;;;;;;;;;23.90;60.49;99735.13;4409409;32;20324;-94
2022/05/04 13:11:35;;;;;;;;;;;;;;;24.16;60.50;99730.16;4409421;32;20078;-94
2022/05/04 13:14:00;;;;;;;;;;;;;;;24.35;60.51;99724.88;4409713;32;19992;-94
2022/05/04 13:16:26;;;;;;;;;;;;;;;24.52;60.53;99719.87;4409227;32;21997;-94
2022/05/04 13:18:51;;;;;;;;;;;;;;;24.66;60.53;99724.81;4409525;32;20000;-94
2022/05/04 13:21:18;;;;;;;;;;;;;;;24.76;60.54;99728.31;4409457;32;20009;-94
2022/05/04 13:23:44;;;;;;;;;;;;;;;24.76;60.54;99729.13;4409554;32;20024;-95
2022/05/04 13:26:11;;;;;;;;;;;;;;;24.80;60.53;99738.53;4409906;32;20608;-94
2022/05/04 13:28:36;;;;;;;;;;;;;;;24.97;60.54;99728.16;4410450;32;20012;-93